Pagrindinis puslapis
METAR-TAF:

METAR-TAF

Oro uostai :

White Mountain, Aliaska, Jungtinės Amerikos Valstijos

platuma: 64-41-21N, ilguma: 163-24-46W, Aukštis: 81 m

Dabartinis oras

Ataskaita buvo paskelbta 22 minutes, ne 09:56 UTC
Vėjas 10 kt iš Šiaurės
Temperatūra -15°C
Drėgmė 71%
Slėgis 1016 hPa
Matomumas: 16.1 km
Giedras dangus

METAR: PAWM 260956Z AUTO 36010KT 10SM CLR M15/M19 A3000 RMK AO2 SLP166 T11501189 FZRANO

Laikas: 01:18 (10:18 UTC)


TAF: trūkstamas

Orai ataskaitas ir orų prognozės (METAR, TAF).

turimą stotys yra geltonos ir raudonos taškus žemėlapyje.

Perkelti pele per norėdami pamatyti stoties vardą.

Tada spustelėkite, norėdami matyti oro stebėjimo ir prognozės.

Norėdami pakeisti žemėlapį: spustelėkite ant žalios mygtukų su juodo kryžiaus žemyn,; žalią mygtuką su brūkšneliu, jei norite nutolinti; arba žalių rodyklių gretimoms žemėlapius.


METAR-TAF: